Paseo de las Flores, Puerto Rico
Current Conditions -  °F | °C
As of 1:56 AM on Saturday 01 Nov 2014 (Local Time) from TJSJ Reporting Station
Clear Clear  
Wind Chill: 80°   Ceiling: Unl
Heat Index: 85°   Visibility: 10mi
Dew Point: 76°   Wind: 0mph
Humidity: 87%   Direction: NA
Pressure: 29.93"   Gusts: NA
Location:  18.1909°N, 65.9618°W
Report Text: TJSJ 010556Z 00000KT 10SM CLR 27/24 A2993 RMK AO2 SLP132 T02670244 10278 20267 58004
Loading
Personal Weather Stations






























Interactive Weather Map
Tropical Storm Tracking
New forecast layout! Learn more

10-Day Weather Forecast

Advertisements
Track Severe Weather on mobile